Nowata, Oklahoma
Current Conditions -  °F | °C
As of 1:53 PM on Wednesday 17 Dec 2014 (Local Time) from KBVO Reporting Station
Overcast Overcast  
Wind Chill: 29°   Ceiling: 5500
Heat Index: 34°   Visibility: 10mi
Dew Point: 28°   Wind: 6mph
Humidity: 79%   Direction: 90°E
Pressure: 30.24"   Gusts: NA
Location:  36.7°N, 95.64°W
Report Text: KBVO 171953Z AUTO 09005KT 10SM OVC055 01/M02 A3024 RMK AO2 RAB09E49UPB25E37 SLP242 P0002 T00111022
Loading
Personal Weather Stations






























Interactive Weather Map New forecast layout! Learn more

10-Day Weather Forecast

Advertisements
Track Severe Weather on mobile